Time;durP1;ratioP1;P1;durP2;ratioP2;P2;SDS_P1;SDS_P2;PMS_P1;PMS_P2;Temp;Humidity;BMP_temperature;BMP_pressure;BME280_temperature;BME280_humidity;BME280_pressure;Samples;Min_cycle;Max_cycle;Signal;HPM_P1;HPM_P2
2021/03/10 00:00:50;;;;;;;1999.90;999.90;;;3.80;99.90;;;;;;6249489;23;20024;-96
2021/03/10 00:03:19;;;;;;;1999.90;999.90;;;3.80;99.90;;;;;;6250843;23;20287;-96
2021/03/10 00:05:47;;;;;;;1999.90;999.90;;;3.70;99.90;;;;;;6254538;23;20040;-96
2021/03/10 00:08:45;;;;;;;;;;;;;;;;;;;;;
2021/03/10 00:14:11;;;;;;;1999.90;999.90;;;3.60;99.90;;;;;;6243005;23;20042;-96
2021/03/10 00:16:41;;;;;;;1999.90;999.90;;;3.60;99.90;;;;;;6249145;23;20499;-96
2021/03/10 00:19:13;;;;;;;1999.90;999.90;;;3.60;99.90;;;;;;6249442;23;20024;-96
2021/03/10 00:21:40;;;;;;;1999.90;999.90;;;3.50;99.90;;;;;;6249680;23;20024;-96
2021/03/10 00:24:08;;;;;;;1999.90;999.90;;;3.50;99.90;;;;;;6249817;23;20024;-96
2021/03/10 00:26:37;;;;;;;1999.90;999.90;;;3.50;99.90;;;;;;6248812;23;20020;-96
2021/03/10 00:29:05;;;;;;;1999.90;999.90;;;3.40;99.90;;;;;;6249302;23;20028;-96
2021/03/10 00:31:37;;;;;;;1999.90;999.90;;;3.40;99.90;;;;;;6249735;23;20024;-95
2021/03/10 00:34:05;;;;;;;1999.90;999.90;;;3.40;99.90;;;;;;6248484;23;20327;-95
2021/03/10 00:36:32;;;;;;;1999.90;999.90;;;3.40;99.90;;;;;;6249132;23;20090;-95
2021/03/10 00:39:05;;;;;;;1999.90;999.90;;;3.30;99.90;;;;;;6248251;23;20042;-95
2021/03/10 00:41:38;;;;;;;1999.90;999.90;;;3.30;99.90;;;;;;6248065;23;20068;-95
2021/03/10 00:44:07;;;;;;;1999.90;999.90;;;3.20;99.90;;;;;;6248403;23;20024;-95
2021/03/10 00:46:35;;;;;;;1999.90;999.90;;;3.20;99.90;;;;;;6248039;23;20078;-95
2021/03/10 00:49:04;;;;;;;1999.90;999.90;;;3.20;99.90;;;;;;6248085;23;20021;-95
2021/03/10 00:51:32;;;;;;;1999.90;999.90;;;3.20;99.90;;;;;;6235162;23;20027;-96
2021/03/10 00:58:02;;;;;;;1999.90;999.90;;;3.20;99.90;;;;;;6097197;23;20032;-95
2021/03/10 01:00:33;;;;;;;1999.90;999.90;;;3.10;99.90;;;;;;6097167;23;20085;-95
2021/03/10 01:03:02;;;;;;;1999.90;999.90;;;3.10;99.90;;;;;;6097638;23;20103;-96
2021/03/10 01:05:50;;;;;;;1999.90;999.90;;;3.10;99.90;;;;;;6097299;23;20030;-96
2021/03/10 01:08:19;;;;;;;1999.90;999.90;;;3.10;99.90;;;;;;6099200;23;20109;-96
2021/03/10 01:10:47;;;;;;;1999.90;999.90;;;3.00;99.90;;;;;;6098535;23;20026;-96
2021/03/10 01:13:15;;;;;;;1999.90;999.90;;;3.00;99.90;;;;;;6098132;23;20077;-96
2021/03/10 01:15:46;;;;;;;1999.90;999.90;;;3.00;99.90;;;;;;6097281;23;20058;-96
2021/03/10 01:18:16;;;;;;;1999.90;999.90;;;3.00;99.90;;;;;;6097370;23;20026;-96
2021/03/10 01:28:24;;;;;;;1999.90;999.90;;;2.90;99.90;;;;;;6059100;23;20155;-96
2021/03/10 01:30:55;;;;;;;1999.90;999.90;;;2.90;99.90;;;;;;6133797;23;20088;-95
2021/03/10 01:33:27;;;;;;;1999.90;999.90;;;2.90;99.90;;;;;;6248349;23;20120;-96
2021/03/10 01:36:14;;;;;;;1999.90;999.90;;;2.90;99.90;;;;;;6247953;23;20020;-96
2021/03/10 01:38:42;;;;;;;1999.90;999.90;;;2.90;99.90;;;;;;6248716;23;20024;-96
2021/03/10 01:41:13;;;;;;;1999.90;999.90;;;2.90;99.90;;;;;;6248150;23;20103;-95
2021/03/10 01:43:46;;;;;;;1999.90;999.90;;;2.90;99.90;;;;;;6247564;23;20398;-96
2021/03/10 01:46:18;;;;;;;1999.90;999.90;;;2.80;99.90;;;;;;6247929;23;20027;-96
2021/03/10 01:48:54;;;;;;;1999.90;999.90;;;2.90;99.90;;;;;;6247171;23;20070;-96
2021/03/10 01:51:31;;;;;;;1999.90;999.90;;;2.80;99.90;;;;;;6247957;23;20027;-96
2021/03/10 01:54:10;;;;;;;1999.90;999.90;;;2.90;99.90;;;;;;6247764;23;20099;-95
2021/03/10 01:57:01;;;;;;;1999.90;999.90;;;2.90;99.90;;;;;;6237160;23;20028;-95
2021/03/10 01:59:41;;;;;;;1999.90;999.90;;;2.90;99.90;;;;;;6235131;23;20024;-96
2021/03/10 02:02:21;;;;;;;1999.90;999.90;;;2.90;99.90;;;;;;6247919;23;20020;-95
2021/03/10 02:05:13;;;;;;;1999.90;999.90;;;2.90;99.90;;;;;;6247642;23;20347;-95
2021/03/10 02:07:54;;;;;;;1999.90;999.90;;;2.90;99.90;;;;;;6247895;23;20392;-94
2021/03/10 02:10:49;;;;;;;1999.90;999.90;;;3.00;99.90;;;;;;6247883;23;20031;-96
2021/03/10 02:13:39;;;;;;;1999.90;999.90;;;2.90;99.90;;;;;;6247786;23;20070;-95
2021/03/10 02:16:39;;;;;;;1999.90;999.90;;;3.00;99.90;;;;;;6247508;23;20098;-96
2021/03/10 02:19:48;;;;;;;1999.90;999.90;;;3.00;99.90;;;;;;6247566;23;20340;-96
2021/03/10 02:22:46;;;;;;;1999.90;999.90;;;3.10;99.90;;;;;;6248364;23;20020;-96
2021/03/10 02:25:34;;;;;;;1999.90;999.90;;;3.10;99.90;;;;;;6247830;23;20026;-96
2021/03/10 02:28:10;;;;;;;1999.90;999.90;;;3.20;99.90;;;;;;6252003;23;20100;-95
2021/03/10 02:30:41;;;;;;;1999.90;999.90;;;3.20;99.90;;;;;;6257607;23;20024;-96
2021/03/10 02:33:26;;;;;;;1999.90;999.90;;;3.30;99.90;;;;;;6258136;23;20027;-96
2021/03/10 02:36:09;;;;;;;;;;;;;;;;;;;;;
2021/03/10 02:38:43;;;;;;;1999.90;999.90;;;3.30;99.90;;;;;;6263273;23;20031;-95
2021/03/10 02:41:13;;;;;;;1999.90;999.90;;;3.30;99.90;;;;;;6255026;23;20454;-96
2021/03/10 02:43:50;;;;;;;1999.90;999.90;;;3.40;99.90;;;;;;6249638;23;20461;-96
2021/03/10 02:46:26;;;;;;;1999.90;999.90;;;3.40;99.90;;;;;;6249689;23;20024;-96
2021/03/10 02:48:56;;;;;;;1999.90;999.90;;;3.50;99.90;;;;;;6250160;23;20042;-96
2021/03/10 02:51:30;;;;;;;1999.90;999.90;;;3.50;99.90;;;;;;6250393;23;20076;-96
2021/03/10 02:54:02;;;;;;;1999.90;999.90;;;3.50;99.90;;;;;;6250505;23;20016;-96
2021/03/10 02:56:35;;;;;;;1999.90;999.90;;;3.60;99.90;;;;;;6250901;23;20024;-96
2021/03/10 02:59:08;;;;;;;1999.90;999.90;;;3.60;99.90;;;;;;6251230;23;20435;-96
2021/03/10 03:01:39;;;;;;;1999.90;999.90;;;3.60;99.90;;;;;;6239861;23;20077;-96
2021/03/10 03:04:11;;;;;;;1999.90;999.90;;;3.70;99.90;;;;;;6250806;23;20021;-96
2021/03/10 03:06:46;;;;;;;1999.90;999.90;;;3.70;99.90;;;;;;6250683;23;20030;-96
2021/03/10 03:09:20;;;;;;;1999.90;999.90;;;3.70;99.90;;;;;;6249682;23;20455;-96
2021/03/10 03:11:49;;;;;;;1999.90;999.90;;;3.70;99.90;;;;;;6251851;23;20039;-96
2021/03/10 03:14:38;;;;;;;1999.90;999.90;;;3.80;99.90;;;;;;6252512;23;20039;-96
2021/03/10 03:17:14;;;;;;;1999.90;999.90;;;3.80;99.90;;;;;;6252355;23;20043;-96
2021/03/10 03:19:42;;;;;;;1999.90;999.90;;;3.90;99.90;;;;;;6252678;23;20304;-96
2021/03/10 03:22:27;;;;;;;1999.90;999.90;;;3.90;99.90;;;;;;6253647;23;20078;-96
2021/03/10 03:25:12;;;;;;;1999.90;999.90;;;3.80;99.90;;;;;;6252951;23;20024;-96
2021/03/10 03:27:47;;;;;;;1999.90;999.90;;;3.90;99.90;;;;;;6251665;23;20074;-96
2021/03/10 03:30:17;;;;;;;1999.90;999.90;;;3.90;99.90;;;;;;6251654;23;20024;-96
2021/03/10 03:32:51;;;;;;;1999.90;999.90;;;3.90;99.90;;;;;;6249551;23;20043;-96
2021/03/10 03:35:26;;;;;;;1999.90;999.90;;;4.00;99.90;;;;;;6251186;23;20058;-96
2021/03/10 03:37:57;;;;;;;1999.90;999.90;;;3.90;99.90;;;;;;6252382;23;20358;-96
2021/03/10 03:40:25;;;;;;;1999.90;999.90;;;3.90;99.90;;;;;;6251458;23;20024;-96
2021/03/10 03:42:55;;;;;;;1999.90;999.90;;;3.90;99.90;;;;;;6250042;23;20016;-96
2021/03/10 03:45:37;;;;;;;1999.90;999.90;;;3.90;99.90;;;;;;6249814;23;20103;-96
2021/03/10 03:48:09;;;;;;;1999.90;999.90;;;3.90;99.90;;;;;;6223378;23;20031;-96
2021/03/10 03:50:42;;;;;;;1999.90;999.90;;;3.90;99.90;;;;;;6237656;23;20024;-96
2021/03/10 03:53:16;;;;;;;1999.90;999.90;;;3.90;99.90;;;;;;6249074;23;20095;-96
2021/03/10 03:55:46;;;;;;;1999.90;999.90;;;3.90;99.90;;;;;;6250556;23;20087;-96
2021/03/10 03:58:22;;;;;;;1999.90;999.90;;;3.90;99.90;;;;;;6249873;23;20089;-96
2021/03/10 04:00:51;;;;;;;1999.90;999.90;;;3.90;99.90;;;;;;6250129;23;20070;-96
2021/03/10 04:03:25;;;;;;;1999.90;999.90;;;3.90;99.90;;;;;;6249885;23;20017;-95
2021/03/10 04:06:01;;;;;;;1999.90;999.90;;;3.90;99.90;;;;;;6249092;23;20078;-95
2021/03/10 04:08:29;;;;;;;1999.90;999.90;;;3.90;99.90;;;;;;6249289;23;20091;-95
2021/03/10 04:10:56;;;;;;;1999.90;999.90;;;3.90;99.90;;;;;;6249015;23;20024;-96
2021/03/10 04:13:24;;;;;;;1999.90;999.90;;;3.90;99.90;;;;;;6249769;23;20050;-96
2021/03/10 04:15:53;;;;;;;1999.90;999.90;;;3.90;99.90;;;;;;6248800;23;20024;-96
2021/03/10 04:18:21;;;;;;;1999.90;999.90;;;3.90;99.90;;;;;;6249648;23;20334;-96
2021/03/10 04:20:49;;;;;;;1999.90;999.90;;;3.90;99.90;;;;;;6249476;23;20107;-95
2021/03/10 04:23:19;;;;;;;1999.90;999.90;;;3.90;99.90;;;;;;6249767;23;20016;-96
2021/03/10 04:25:46;;;;;;;1999.90;999.90;;;3.90;99.90;;;;;;6250448;23;20419;-96
2021/03/10 04:28:15;;;;;;;1999.90;999.90;;;3.90;99.90;;;;;;6249211;23;20078;-96
2021/03/10 04:30:46;;;;;;;1999.90;999.90;;;3.90;99.90;;;;;;6248685;23;20074;-96
2021/03/10 04:33:15;;;;;;;1999.90;999.90;;;3.90;99.90;;;;;;6249409;23;20044;-96
2021/03/10 04:35:46;;;;;;;1999.90;999.90;;;3.90;99.90;;;;;;6249362;23;20028;-96
2021/03/10 04:38:27;;;;;;;1999.90;999.90;;;3.90;99.90;;;;;;6249851;23;20107;-96
2021/03/10 04:40:55;;;;;;;1999.90;999.90;;;3.90;99.90;;;;;;6249410;23;20111;-96
2021/03/10 04:43:23;;;;;;;1999.90;999.90;;;3.90;99.90;;;;;;6248293;23;20020;-96
2021/03/10 04:45:55;;;;;;;1999.90;999.90;;;4.00;99.90;;;;;;6249903;23;20024;-96
2021/03/10 04:48:25;;;;;;;1999.90;999.90;;;4.00;99.90;;;;;;6249897;23;20099;-96
2021/03/10 04:50:53;;;;;;;1999.90;999.90;;;3.90;99.90;;;;;;6250597;23;20090;-96
2021/03/10 04:53:21;;;;;;;1999.90;999.90;;;3.90;99.90;;;;;;6248799;23;20017;-96
2021/03/10 04:55:49;;;;;;;1999.90;999.90;;;3.90;99.90;;;;;;6250037;23;20360;-96
2021/03/10 04:58:18;;;;;;;1999.90;999.90;;;3.90;99.90;;;;;;6249222;23;20431;-96
2021/03/10 05:00:47;;;;;;;1999.90;999.90;;;3.90;99.90;;;;;;6249070;23;20107;-96
2021/03/10 05:03:17;;;;;;;1999.90;999.90;;;3.90;99.90;;;;;;6248417;23;20020;-96
2021/03/10 05:05:46;;;;;;;1999.90;999.90;;;3.90;99.90;;;;;;6249980;23;20043;-96
2021/03/10 05:08:16;;;;;;;1999.90;999.90;;;4.00;99.90;;;;;;6248591;23;20024;-96
2021/03/10 05:10:45;;;;;;;1999.90;999.90;;;4.00;99.90;;;;;;6248293;23;20027;-95
2021/03/10 05:13:12;;;;;;;1999.90;999.90;;;4.00;99.90;;;;;;6249089;23;20071;-96
2021/03/10 05:15:42;;;;;;;1999.90;999.90;;;4.00;99.90;;;;;;6249388;23;20420;-96
2021/03/10 05:18:10;;;;;;;1999.90;999.90;;;4.00;99.90;;;;;;6248699;23;20448;-96
2021/03/10 05:20:54;;;;;;;1999.90;999.90;;;4.00;99.90;;;;;;6247202;23;20044;-96
2021/03/10 05:23:24;;;;;;;1999.90;999.90;;;4.00;99.90;;;;;;6248274;23;20063;-96
2021/03/10 05:25:57;;;;;;;1999.90;999.90;;;4.00;99.90;;;;;;6249014;23;20047;-96
2021/03/10 05:28:28;;;;;;;1999.90;999.90;;;4.10;99.90;;;;;;6248423;23;20024;-96
2021/03/10 05:31:00;;;;;;;1999.90;999.90;;;4.10;99.90;;;;;;6248626;23;20035;-96
2021/03/10 05:33:31;;;;;;;1999.90;999.90;;;4.10;99.90;;;;;;6248195;23;20024;-95
2021/03/10 05:36:01;;;;;;;1999.90;999.90;;;4.10;99.90;;;;;;6248759;23;20031;-95
2021/03/10 05:38:33;;;;;;;1999.90;999.90;;;4.10;99.90;;;;;;6248210;23;20438;-96
2021/03/10 05:41:01;;;;;;;1999.90;999.90;;;4.10;99.90;;;;;;6248900;23;20024;-96
2021/03/10 05:43:31;;;;;;;1999.90;999.90;;;4.10;99.90;;;;;;6248103;23;20374;-96
2021/03/10 05:45:58;;;;;;;1999.90;999.90;;;4.10;99.90;;;;;;6248441;23;20020;-95
2021/03/10 05:48:28;;;;;;;1999.90;999.90;;;4.10;99.90;;;;;;6247535;23;20024;-95
2021/03/10 05:51:00;;;;;;;1999.90;999.90;;;4.10;99.90;;;;;;6247309;23;20028;-96
2021/03/10 05:53:29;;;;;;;1999.90;999.90;;;4.10;99.90;;;;;;6248195;23;20024;-95
2021/03/10 05:56:00;;;;;;;1999.90;999.90;;;4.10;99.90;;;;;;6247584;23;20020;-96
2021/03/10 05:58:28;;;;;;;1999.90;999.90;;;4.10;99.90;;;;;;6248328;23;20099;-96
2021/03/10 06:00:56;;;;;;;1999.90;999.90;;;4.10;99.90;;;;;;6248309;23;20055;-96
2021/03/10 06:03:24;;;;;;;1999.90;999.90;;;4.10;99.90;;;;;;6247520;23;20039;-96
2021/03/10 06:06:00;;;;;;;1999.90;999.90;;;4.20;99.90;;;;;;6248029;23;20094;-96
2021/03/10 06:08:28;;;;;;;1999.90;999.90;;;4.20;99.90;;;;;;6248863;23;20396;-96
2021/03/10 06:10:56;;;;;;;1999.90;999.90;;;4.20;99.90;;;;;;6247867;23;20027;-96
2021/03/10 06:13:27;;;;;;;1999.90;999.90;;;4.20;99.90;;;;;;6251010;23;20016;-96
2021/03/10 06:15:57;;;;;;;1999.90;999.90;;;4.20;99.90;;;;;;6253103;23;20024;-96
2021/03/10 06:18:28;;;;;;;1999.90;999.90;;;4.20;99.90;;;;;;6247815;23;20024;-96
2021/03/10 06:21:08;;;;;;;1999.90;999.90;;;4.30;99.90;;;;;;6248860;23;20055;-96
2021/03/10 06:23:48;;;;;;;1999.90;999.90;;;4.30;99.90;;;;;;6248440;23;20022;-96
2021/03/10 06:30:56;;;;;;;1999.90;999.90;;;4.30;99.90;;;;;;6206325;23;20020;-96
2021/03/10 06:33:29;;;;;;;1999.90;999.90;;;4.30;99.90;;;;;;6248774;23;20020;-96
2021/03/10 06:36:00;;;;;;;1999.90;999.90;;;4.30;99.90;;;;;;6248558;23;20020;-95
2021/03/10 06:38:30;;;;;;;1999.90;999.90;;;4.30;99.90;;;;;;6247210;23;20074;-96
2021/03/10 06:40:59;;;;;;;1999.90;999.90;;;4.40;99.90;;;;;;6247894;23;20028;-95
2021/03/10 06:43:35;;;;;;;1999.90;999.90;;;4.40;99.90;;;;;;6247970;23;20024;-96
2021/03/10 06:46:12;;;;;;;1999.90;999.90;;;4.40;99.90;;;;;;6248369;23;20103;-96
2021/03/10 06:48:53;;;;;;;1999.90;999.90;;;4.40;99.90;;;;;;6247588;23;20027;-96
2021/03/10 06:51:22;;;;;;;1999.90;999.90;;;4.40;99.90;;;;;;6248385;23;20020;-96
2021/03/10 06:53:53;;;;;;;1999.90;999.90;;;4.40;99.90;;;;;;6247773;23;20020;-96
2021/03/10 06:56:37;;;;;;;1999.90;999.90;;;4.50;99.90;;;;;;6248459;23;20020;-96
2021/03/10 06:59:07;;;;;;;1999.90;999.90;;;4.50;99.90;;;;;;6248312;23;20470;-96
2021/03/10 07:01:41;;;;;;;1999.90;999.90;;;4.50;99.90;;;;;;6248964;23;20028;-96
2021/03/10 07:04:11;;;;;;;1999.90;999.90;;;4.50;99.90;;;;;;6251168;23;20394;-95
2021/03/10 07:06:39;;;;;;;1999.90;999.90;;;4.50;99.90;;;;;;6252439;23;20051;-95
2021/03/10 07:09:13;;;;;;;1999.90;999.90;;;4.50;99.90;;;;;;6250291;23;20397;-95
2021/03/10 07:11:46;;;;;;;1999.90;999.90;;;4.60;99.90;;;;;;6249525;23;20024;-96
2021/03/10 07:14:14;;;;;;;1999.90;999.90;;;4.60;99.90;;;;;;6248699;23;20074;-96
2021/03/10 07:16:44;;;;;;;1999.90;999.90;;;4.60;99.90;;;;;;6251127;23;20054;-95
2021/03/10 07:19:18;;;;;;;1999.90;999.90;;;4.60;99.90;;;;;;6251258;23;20024;-95
2021/03/10 07:21:54;;;;;;;1999.90;999.90;;;4.70;99.90;;;;;;6251198;23;20078;-95
2021/03/10 07:24:38;;;;;;;1999.90;999.90;;;4.70;99.90;;;;;;6252633;23;20016;-95
2021/03/10 07:27:15;;;;;;;1999.90;999.90;;;4.70;99.90;;;;;;6250028;23;20106;-95
2021/03/10 07:29:47;;;;;;;1999.90;999.90;;;4.80;99.90;;;;;;6250107;23;20065;-96
2021/03/10 07:32:23;;;;;;;1999.90;999.90;;;4.70;99.90;;;;;;6249763;23;20071;-96
2021/03/10 07:35:00;;;;;;;1999.90;999.90;;;4.80;99.90;;;;;;6251062;23;20426;-94
2021/03/10 07:37:29;;;;;;;1999.90;999.90;;;4.80;99.90;;;;;;6250477;23;20028;-94
2021/03/10 07:40:10;;;;;;;1999.90;999.90;;;4.80;99.90;;;;;;6250448;23;20032;-94
2021/03/10 07:42:54;;;;;;;1999.90;999.90;;;4.80;99.90;;;;;;6249668;23;20024;-94
2021/03/10 07:45:43;;;;;;;1999.90;999.90;;;4.90;99.90;;;;;;6250233;23;20020;-93
2021/03/10 07:48:15;;;;;;;1999.90;999.90;;;4.90;99.90;;;;;;6249833;23;20465;-95
2021/03/10 07:50:47;;;;;;;1999.90;999.90;;;4.90;99.90;;;;;;6250568;23;20024;-94
2021/03/10 07:53:15;;;;;;;1999.90;999.90;;;5.00;99.90;;;;;;6250957;23;20074;-94
2021/03/10 07:55:52;;;;;;;1999.90;999.90;;;5.00;99.90;;;;;;6250122;23;20024;-94
2021/03/10 07:58:30;;;;;;;1999.90;999.90;;;5.00;99.90;;;;;;6253924;23;20031;-95
2021/03/10 08:01:16;;;;;;;1999.90;999.90;;;5.00;99.90;;;;;;6254117;23;20418;-94
2021/03/10 08:03:55;;;;;;;1999.90;999.90;;;5.10;99.90;;;;;;6243049;23;20091;-95
2021/03/10 08:06:25;;;;;;;1999.90;999.90;;;5.10;99.90;;;;;;6253180;23;20074;-95
2021/03/10 08:09:32;;;;;;;1999.90;999.90;;;5.10;99.90;;;;;;6253406;23;20050;-96
2021/03/10 08:12:19;;;;;;;1999.90;999.90;;;5.10;99.90;;;;;;6243982;23;20374;-95
2021/03/10 08:48:58;;;;;;;1999.90;999.90;;;5.60;99.90;;;;;;6051367;23;20347;-96
2021/03/10 08:55:38;;;;;;;1999.90;999.90;;;5.80;99.90;;;;;;6073979;23;20019;-96
2021/03/10 08:58:11;;;;;;;1999.90;999.90;;;5.80;99.90;;;;;;6131388;23;20037;-96
2021/03/10 09:01:03;;;;;;;1999.90;999.90;;;5.90;99.90;;;;;;6239641;23;20044;-95
2021/03/10 09:03:32;;;;;;;1999.90;999.90;;;5.90;99.90;;;;;;6252319;23;20024;-95
2021/03/10 09:06:02;;;;;;;1999.90;999.90;;;6.00;99.90;;;;;;6254296;23;20020;-96
2021/03/10 09:08:31;;;;;;;1999.90;999.90;;;6.00;99.90;;;;;;6255557;23;20058;-96
2021/03/10 09:11:04;;;;;;;1999.90;999.90;;;6.10;99.90;;;;;;6251654;23;20024;-95
2021/03/10 09:13:40;;;;;;;1999.90;999.90;;;6.10;99.90;;;;;;6239410;23;20020;-95
2021/03/10 09:16:23;;;;;;;;;;;;;;;;;;;;;
2021/03/10 09:18:59;;;;;;;1999.90;999.90;;;6.30;99.90;;;;;;6250850;23;20099;-95
2021/03/10 09:21:27;;;;;;;1999.90;999.90;;;6.30;99.90;;;;;;6250754;23;20026;-94
2021/03/10 09:24:01;;;;;;;1999.90;999.90;;;6.30;99.90;;;;;;6249063;23;20071;-96
2021/03/10 09:26:40;;;;;;;1999.90;999.90;;;6.40;99.90;;;;;;6249106;23;20028;-95
2021/03/10 09:29:20;;;;;;;;;;;;;;;;;;;;;
2021/03/10 09:32:02;;;;;;;1999.90;999.90;;;6.50;99.90;;;;;;6249102;23;20020;-95
2021/03/10 09:38:36;;;;;;;1999.90;999.90;;;6.60;99.90;;;;;;6177789;23;20027;-95
2021/03/10 09:41:05;;;;;;;1999.90;999.90;;;6.70;99.90;;;;;;6252933;23;20024;-94
2021/03/10 09:43:49;;;;;;;1999.90;999.90;;;6.70;99.90;;;;;;6248372;23;20054;-93
2021/03/10 09:46:16;;;;;;;1999.90;999.90;;;6.70;99.90;;;;;;6249109;23;20020;-93
2021/03/10 09:48:44;;;;;;;1999.90;999.90;;;6.70;99.90;;;;;;6249396;23;20043;-93
2021/03/10 09:51:15;;;;;;;1999.90;999.90;;;6.80;99.90;;;;;;6248721;23;20082;-93
2021/03/10 09:53:44;;;;;;;1999.90;999.90;;;6.80;99.90;;;;;;6251164;23;20071;-93
2021/03/10 09:56:13;;;;;;;1999.90;999.90;;;6.80;99.90;;;;;;6248243;23;20024;-93
2021/03/10 09:58:52;;;;;;;1999.90;999.90;;;6.90;99.90;;;;;;6248230;23;20046;-93
2021/03/10 10:01:31;;;;;;;1999.90;999.90;;;7.00;99.90;;;;;;6249009;23;20454;-92
2021/03/10 10:03:59;;;;;;;1999.90;999.90;;;7.10;99.90;;;;;;6248285;23;20016;-92
2021/03/10 10:06:26;;;;;;;1999.90;999.90;;;7.10;99.90;;;;;;6247644;23;20378;-93
2021/03/10 10:08:54;;;;;;;1999.90;999.90;;;7.20;99.90;;;;;;6247914;23;20024;-94
2021/03/10 10:11:22;;;;;;;1999.90;999.90;;;7.20;99.90;;;;;;6248210;23;20020;-93
2021/03/10 10:17:11;;;;;;;1999.90;999.90;;;7.30;99.90;;;;;;6223046;23;20020;-93
2021/03/10 10:20:11;;;;;;;1999.90;999.90;;;7.30;99.90;;;;;;6248280;23;20078;-93
2021/03/10 10:23:25;;;;;;;1999.90;999.90;;;7.30;99.90;;;;;;6234894;23;20024;-93
2021/03/10 10:26:19;;;;;;;1999.90;999.90;;;7.40;99.90;;;;;;6240583;23;20016;-93
2021/03/10 10:29:05;;;;;;;1999.90;999.90;;;7.50;99.90;;;;;;6239495;23;20343;-93
2021/03/10 10:32:05;;;;;;;1999.90;999.90;;;7.50;99.90;;;;;;6247517;23;20028;-94
2021/03/10 10:34:39;;;;;;;1999.90;999.90;;;7.50;99.90;;;;;;6241976;23;20016;-94
2021/03/10 10:37:33;;;;;;;1999.90;999.90;;;7.50;99.90;;;;;;6251848;23;20020;-94
2021/03/10 10:40:17;;;;;;;1999.90;999.90;;;7.50;99.90;;;;;;6254464;23;20024;-94
2021/03/10 10:42:49;;;;;;;1999.90;999.90;;;7.60;99.90;;;;;;6256873;23;20031;-94
2021/03/10 10:45:19;;;;;;;1999.90;999.90;;;7.60;99.90;;;;;;6257591;23;20035;-94
2021/03/10 10:47:46;;;;;;;1999.90;999.90;;;7.70;99.90;;;;;;6258733;23;20024;-94
2021/03/10 10:50:15;;;;;;;1999.90;999.90;;;7.70;99.90;;;;;;6260912;23;20051;-95
2021/03/10 10:53:24;;;;;;;1999.90;999.90;;;7.80;99.90;;;;;;6260553;23;20078;-96
2021/03/10 11:14:26;;;;;;;1999.90;999.90;;;7.90;99.90;;;;;;5938540;24;20058;-94
2021/03/10 11:21:04;;;;;;;1999.90;999.90;;;8.00;99.90;;;;;;6061832;23;20061;-96
2021/03/10 11:47:15;;;;;;;1999.90;999.90;;;8.30;99.90;;;;;;5981386;23;20067;-96
2021/03/10 11:54:54;;;;;;;1999.90;999.90;;;8.30;99.90;;;;;;6070684;23;20102;-96
2021/03/10 12:05:34;;;;;;;1999.90;999.90;;;8.60;99.90;;;;;;6056471;23;20113;-96
2021/03/10 12:16:04;;;;;;;1999.90;999.90;;;8.90;99.90;;;;;;5942502;24;20508;-96
2021/03/10 13:03:23;;;;;;;1999.90;999.90;;;9.30;99.90;;;;;;5780307;24;20038;-96
2021/03/10 13:06:30;;;;;;;1999.90;999.90;;;9.30;99.90;;;;;;5934078;24;20036;-96
2021/03/10 13:10:24;;;;;;;1999.90;999.90;;;9.30;99.90;;;;;;5880260;24;20133;-96
2021/03/10 13:18:17;;;;;;;1999.90;999.90;;;9.30;99.90;;;;;;5958627;24;20027;-96
2021/03/10 13:20:45;;;;;;;1999.90;999.90;;;9.40;99.90;;;;;;6015326;23;20157;-96
2021/03/10 14:55:55;;;;;;;1999.90;999.90;;;8.60;99.90;;;;;;6047936;23;20033;-95
2021/03/10 14:59:30;;;;;;;1999.90;999.90;;;8.50;99.90;;;;;;6072430;23;20134;-95
2021/03/10 15:03:18;;;;;;;1999.90;999.90;;;8.40;99.90;;;;;;5993022;23;20027;-95
2021/03/10 15:06:22;;;;;;;1999.90;999.90;;;8.40;99.90;;;;;;5822238;24;20058;-95
2021/03/10 15:09:22;;;;;;;1999.90;999.90;;;8.30;99.90;;;;;;5958193;24;20028;-96
2021/03/10 16:56:41;;;;;;;1999.90;999.90;;;7.40;99.90;;;;;;5849785;24;20033;-96
2021/03/10 18:39:42;;;;;;;1999.90;999.90;;;6.90;99.90;;;;;;6046564;23;20033;-96
2021/03/10 18:42:47;;;;;;;;;;;;;;;;;;;;;
2021/03/10 18:50:08;;;;;;;1999.90;999.90;;;6.80;99.90;;;;;;6130363;23;20065;-96
2021/03/10 18:52:53;;;;;;;1999.90;999.90;;;6.80;99.90;;;;;;6128048;23;20026;-96
2021/03/10 18:55:39;;;;;;;1999.90;999.90;;;6.90;99.90;;;;;;6129142;23;20041;-96
2021/03/10 19:01:59;;;;;;;1999.90;999.90;;;6.90;99.90;;;;;;6127297;23;20021;-96
2021/03/10 19:04:44;;;;;;;1999.90;999.90;;;6.80;99.90;;;;;;6127248;23;20022;-96
